createdAt,value
2023-01-25T00:01:37.407Z,2.60
2023-01-25T00:04:12.130Z,2.60
2023-01-25T00:06:45.210Z,2.60
2023-01-25T00:09:18.946Z,2.70
2023-01-25T00:11:53.171Z,2.70
2023-01-25T00:14:26.616Z,2.70
2023-01-25T00:16:59.748Z,2.70
2023-01-25T00:19:34.214Z,2.70
2023-01-25T00:22:07.357Z,2.70
2023-01-25T00:24:40.470Z,2.70
2023-01-25T00:27:13.600Z,2.70
2023-01-25T00:29:46.700Z,2.70
2023-01-25T00:32:48.959Z,2.70
2023-01-25T00:35:23.926Z,2.80
2023-01-25T00:37:57.177Z,2.70
2023-01-25T00:40:30.300Z,2.70
2023-01-25T00:43:03.358Z,2.70
2023-01-25T00:45:36.510Z,2.70
2023-01-25T00:48:10.438Z,2.70
2023-01-25T00:50:44.973Z,2.80
2023-01-25T00:53:18.040Z,2.80
2023-01-25T00:55:53.496Z,2.70
2023-01-25T00:58:26.660Z,2.70
2023-01-25T01:01:00.038Z,2.70
2023-01-25T01:03:33.203Z,2.70
2023-01-25T01:06:11.482Z,2.70
2023-01-25T01:08:44.775Z,2.60
2023-01-25T01:11:17.894Z,2.60
2023-01-25T01:13:50.989Z,2.70
2023-01-25T01:16:24.202Z,2.70
2023-01-25T01:18:57.312Z,2.90
2023-01-25T01:21:31.790Z,2.80
2023-01-25T01:24:05.282Z,2.70
2023-01-25T01:26:38.591Z,2.60
2023-01-25T01:29:11.660Z,2.60
2023-01-25T01:31:44.769Z,2.60
2023-01-25T01:34:17.817Z,2.60
2023-01-25T01:36:52.618Z,2.60
2023-01-25T01:39:25.698Z,2.60
2023-01-25T01:41:58.707Z,2.60
2023-01-25T01:44:48.344Z,2.60
2023-01-25T01:47:28.489Z,2.50
2023-01-25T01:50:07.321Z,2.50
2023-01-25T01:52:41.791Z,2.50
2023-01-25T01:55:19.093Z,2.50
2023-01-25T01:57:58.033Z,2.40
2023-01-25T02:00:35.690Z,2.40
2023-01-25T02:03:09.695Z,2.50
2023-01-25T02:05:49.625Z,2.50
2023-01-25T02:08:26.023Z,2.40
2023-01-25T02:11:00.911Z,2.40
2023-01-25T02:13:34.344Z,2.30
2023-01-25T02:16:15.514Z,2.30
2023-01-25T02:18:48.575Z,2.40
2023-01-25T02:21:22.219Z,2.40
2023-01-25T02:24:02.868Z,2.50
2023-01-25T02:26:37.319Z,2.40
2023-01-25T02:29:11.025Z,2.40
2023-01-25T02:31:46.105Z,2.40
2023-01-25T02:34:19.493Z,2.40
2023-01-25T02:36:52.609Z,2.40
2023-01-25T02:39:26.722Z,2.30
2023-01-25T02:42:01.067Z,2.30
2023-01-25T02:44:34.887Z,2.30
2023-01-25T02:47:07.956Z,2.30
2023-01-25T02:49:41.056Z,2.30
2023-01-25T02:52:14.118Z,2.30
2023-01-25T02:54:47.134Z,2.30
2023-01-25T02:57:23.172Z,2.30
2023-01-25T02:59:56.307Z,2.30
2023-01-25T03:02:29.387Z,2.30
2023-01-25T03:05:02.470Z,2.40
2023-01-25T03:07:35.512Z,2.40
2023-01-25T03:10:10.179Z,2.40
2023-01-25T03:12:44.538Z,2.30
2023-01-25T03:15:17.666Z,2.40
2023-01-25T03:17:50.694Z,2.50
2023-01-25T03:20:24.154Z,2.40
2023-01-25T03:22:57.206Z,2.40
2023-01-25T03:25:30.264Z,2.40
2023-01-25T03:28:04.666Z,2.40
2023-01-25T03:30:37.770Z,2.50
2023-01-25T03:33:10.816Z,2.40
2023-01-25T03:35:43.979Z,2.50
2023-01-25T03:38:17.022Z,2.40
2023-01-25T03:40:50.269Z,2.30
2023-01-25T03:43:25.447Z,2.30
2023-01-25T03:46:01.443Z,2.40
2023-01-25T03:48:34.535Z,2.40
2023-01-25T03:51:07.624Z,2.30
2023-01-25T03:53:40.631Z,2.30
2023-01-25T03:56:19.855Z,2.30
2023-01-25T03:58:54.326Z,2.20
2023-01-25T04:01:27.519Z,2.30
2023-01-25T04:04:00.616Z,2.30
2023-01-25T04:06:33.667Z,2.30
2023-01-25T04:09:07.800Z,2.30
2023-01-25T04:11:40.874Z,2.30
2023-01-25T04:14:15.530Z,2.30
2023-01-25T04:16:48.578Z,2.30
2023-01-25T04:19:21.604Z,2.30
2023-01-25T04:21:54.616Z,2.30
2023-01-25T04:24:27.697Z,2.30
2023-01-25T04:27:00.806Z,2.30
2023-01-25T04:29:41.072Z,2.20
2023-01-25T04:32:14.625Z,2.20
2023-01-25T04:34:47.758Z,2.20
2023-01-25T04:37:20.748Z,2.30
2023-01-25T04:39:53.767Z,2.40
2023-01-25T04:42:27.105Z,2.40
2023-01-25T04:45:01.441Z,2.20
2023-01-25T04:47:34.455Z,2.30
2023-01-25T04:50:08.058Z,2.30
2023-01-25T04:52:41.106Z,2.30
2023-01-25T04:55:14.216Z,2.20
2023-01-25T04:57:50.139Z,2.10
2023-01-25T05:00:24.822Z,2.10
2023-01-25T05:02:58.153Z,2.20
2023-01-25T05:05:31.291Z,2.20
2023-01-25T05:08:04.389Z,2.20
2023-01-25T05:10:37.446Z,2.30
2023-01-25T05:13:10.473Z,2.20
2023-01-25T05:15:44.976Z,2.30
2023-01-25T05:18:18.126Z,2.20
2023-01-25T05:20:56.510Z,2.10
2023-01-25T05:23:29.533Z,2.20
2023-01-25T05:26:20.405Z,2.20
2023-01-25T05:28:53.549Z,2.20
2023-01-25T05:31:27.949Z,2.20
2023-01-25T05:34:01.017Z,2.20
2023-01-25T05:36:34.033Z,2.20
2023-01-25T05:39:08.682Z,2.20
2023-01-25T05:41:41.740Z,2.20
2023-01-25T05:44:14.794Z,2.30
2023-01-25T05:46:49.827Z,2.30
2023-01-25T05:49:22.933Z,2.30
2023-01-25T05:51:55.978Z,2.30
2023-01-25T05:54:29.112Z,2.30
2023-01-25T05:57:02.719Z,2.30
2023-01-25T05:59:35.723Z,2.30
2023-01-25T06:02:10.198Z,2.30
2023-01-25T06:04:43.217Z,2.30
2023-01-25T06:07:16.290Z,2.30
2023-01-25T06:09:49.301Z,2.30
2023-01-25T06:12:23.146Z,2.20
2023-01-25T06:14:56.150Z,2.10
2023-01-25T06:17:30.533Z,2.10
2023-01-25T06:20:03.548Z,2.10
2023-01-25T06:22:36.601Z,2.20
2023-01-25T06:25:10.847Z,2.20
2023-01-25T06:27:44.081Z,2.20
2023-01-25T06:30:17.767Z,2.20
2023-01-25T06:32:52.190Z,2.20
2023-01-25T06:35:25.520Z,2.20
2023-01-25T06:37:59.443Z,2.20
2023-01-25T06:40:32.487Z,2.30
2023-01-25T06:43:08.801Z,2.30
2023-01-25T06:45:41.828Z,2.30
2023-01-25T06:48:16.176Z,2.30
2023-01-25T06:50:55.942Z,2.30
2023-01-25T06:53:30.781Z,2.40
2023-01-25T06:56:10.826Z,2.40
2023-01-25T06:58:45.114Z,2.40
2023-01-25T07:01:21.264Z,2.40
2023-01-25T07:03:58.313Z,2.40
2023-01-25T07:06:34.377Z,2.40
2023-01-25T07:09:11.002Z,2.40
2023-01-25T07:11:44.037Z,2.40
2023-01-25T07:14:17.250Z,2.40
2023-01-25T07:16:50.271Z,2.40
2023-01-25T07:19:24.766Z,2.40
2023-01-25T07:21:57.856Z,2.40
2023-01-25T07:24:31.047Z,2.40
2023-01-25T07:27:04.240Z,2.50
2023-01-25T07:29:37.396Z,2.40
2023-01-25T07:32:12.675Z,2.30
2023-01-25T07:34:47.068Z,2.30
2023-01-25T07:37:20.087Z,2.30
2023-01-25T07:39:53.116Z,2.40
2023-01-25T07:42:26.340Z,2.40
2023-01-25T07:44:59.686Z,2.40
2023-01-25T07:47:32.745Z,2.40
2023-01-25T07:50:08.571Z,2.40
2023-01-25T07:52:41.859Z,2.50
2023-01-25T07:55:15.527Z,2.50
2023-01-25T07:57:48.689Z,2.50
2023-01-25T08:00:23.941Z,2.50
2023-01-25T08:02:58.027Z,2.50
2023-01-25T08:05:32.358Z,2.60
2023-01-25T08:08:05.982Z,2.60
2023-01-25T08:10:40.123Z,2.50
2023-01-25T08:13:13.143Z,2.50
2023-01-25T08:15:54.315Z,2.50
2023-01-25T08:18:27.354Z,2.50
2023-01-25T08:21:02.161Z,2.60
2023-01-25T08:23:35.239Z,2.80
2023-01-25T08:26:10.441Z,2.80
2023-01-25T08:28:43.447Z,2.70
2023-01-25T08:31:19.475Z,2.70
2023-01-25T08:33:55.044Z,2.60
2023-01-25T08:36:29.886Z,2.50
2023-01-25T08:39:05.209Z,2.50
2023-01-25T08:41:38.286Z,2.60
2023-01-25T08:44:11.479Z,2.70
2023-01-25T08:46:45.785Z,2.60
2023-01-25T08:49:18.819Z,2.60
2023-01-25T08:51:53.142Z,2.50
2023-01-25T08:54:26.139Z,2.50
2023-01-25T08:56:59.118Z,2.50
2023-01-25T08:59:32.405Z,2.50
2023-01-25T09:02:05.462Z,2.50
2023-01-25T09:04:38.504Z,2.60
2023-01-25T09:07:12.867Z,2.50
2023-01-25T09:09:45.822Z,2.50
2023-01-25T09:12:18.808Z,2.60
2023-01-25T09:14:51.767Z,2.60
2023-01-25T09:17:24.734Z,2.60
2023-01-25T09:19:58.760Z,2.50
2023-01-25T09:22:33.095Z,2.50
2023-01-25T09:25:07.108Z,2.60
2023-01-25T09:27:40.280Z,2.60
2023-01-25T09:30:18.797Z,2.60
2023-01-25T09:32:52.761Z,2.50
2023-01-25T09:35:29.710Z,2.60
2023-01-25T09:38:04.153Z,2.60
2023-01-25T09:40:45.380Z,2.60
2023-01-25T09:43:31.908Z,2.60
2023-01-25T09:46:18.834Z,2.60
2023-01-25T09:49:07.599Z,2.60
2023-01-25T09:51:59.159Z,2.70
2023-01-25T09:54:46.468Z,2.60
2023-01-25T09:57:23.833Z,2.60
2023-01-25T09:59:57.919Z,2.50
2023-01-25T10:02:40.673Z,2.50
2023-01-25T10:05:21.772Z,2.80
2023-01-25T10:08:00.135Z,2.70
2023-01-25T10:10:39.632Z,2.60
2023-01-25T10:13:16.591Z,2.60
2023-01-25T10:15:53.319Z,2.60
2023-01-25T10:18:33.099Z,2.60
2023-01-25T10:21:13.795Z,2.60
2023-01-25T10:24:32.977Z,2.50
2023-01-25T10:27:22.893Z,2.50
2023-01-25T10:29:59.900Z,2.60
2023-01-25T10:32:35.926Z,2.60
2023-01-25T10:35:34.654Z,2.60
2023-01-25T10:38:16.262Z,2.50
2023-01-25T10:40:55.698Z,2.50
2023-01-25T10:43:30.318Z,2.50
2023-01-25T10:46:03.790Z,2.50
2023-01-25T10:48:37.775Z,2.50
2023-01-25T10:51:10.813Z,2.50
2023-01-25T10:53:44.328Z,2.60
2023-01-25T10:56:26.335Z,2.60
2023-01-25T10:59:21.827Z,2.50
2023-01-25T11:01:54.999Z,2.60
2023-01-25T11:04:35.105Z,2.50
2023-01-25T11:07:29.076Z,2.60
2023-01-25T11:10:02.259Z,2.60
2023-01-25T11:12:35.275Z,2.50
2023-01-25T11:15:27.342Z,2.50
2023-01-25T11:18:08.667Z,2.40
2023-01-25T11:20:41.657Z,2.50
2023-01-25T11:23:25.241Z,2.50
2023-01-25T11:26:16.912Z,2.50
2023-01-25T11:28:50.396Z,2.40
2023-01-25T11:31:24.849Z,2.40
2023-01-25T11:33:58.075Z,2.40
2023-01-25T11:36:39.791Z,2.50
2023-01-25T11:39:35.082Z,2.40
2023-01-25T11:42:25.133Z,2.40
2023-01-25T11:45:48.693Z,2.30
2023-01-25T11:48:52.541Z,2.40
2023-01-25T11:51:33.592Z,2.40
2023-01-25T11:54:29.489Z,2.50
2023-01-25T11:57:13.421Z,2.40
2023-01-25T12:00:03.797Z,2.30
2023-01-25T12:03:10.832Z,2.40
2023-01-25T12:06:01.152Z,2.40
2023-01-25T12:09:11.102Z,2.50
2023-01-25T12:12:08.747Z,2.50
2023-01-25T12:15:11.403Z,2.50
2023-01-25T12:18:04.991Z,2.60
2023-01-25T12:21:08.471Z,2.50
2023-01-25T12:24:05.827Z,2.50
2023-01-25T12:26:49.304Z,2.50
2023-01-25T12:29:28.218Z,2.60
2023-01-25T12:32:07.082Z,2.40
2023-01-25T12:34:44.249Z,2.40
2023-01-25T12:37:23.833Z,2.50
2023-01-25T12:40:01.085Z,2.60
2023-01-25T12:42:40.035Z,2.60
2023-01-25T12:45:17.239Z,2.60
2023-01-25T12:47:55.220Z,2.60
2023-01-25T12:50:37.079Z,2.60
2023-01-25T12:53:21.033Z,2.70
2023-01-25T12:55:55.857Z,2.70
2023-01-25T12:58:39.368Z,2.70
2023-01-25T13:01:23.332Z,2.60
2023-01-25T13:04:16.248Z,2.60
2023-01-25T13:06:57.795Z,2.60
2023-01-25T13:09:44.691Z,2.60
2023-01-25T13:12:17.760Z,2.60
2023-01-25T13:14:50.767Z,2.60
2023-01-25T13:17:33.673Z,2.60
2023-01-25T13:20:49.799Z,2.60
2023-01-25T13:23:33.123Z,2.70
2023-01-25T13:26:48.691Z,2.60
2023-01-25T13:30:03.406Z,2.60
2023-01-25T13:33:06.423Z,2.80
2023-01-25T13:35:46.052Z,2.70
2023-01-25T13:38:30.877Z,3.00
2023-01-25T13:41:14.854Z,3.10
2023-01-25T13:44:10.980Z,3.00
2023-01-25T13:46:43.985Z,2.80
2023-01-25T13:49:25.985Z,2.70
2023-01-25T13:52:00.868Z,2.60
2023-01-25T13:54:34.509Z,2.60
2023-01-25T13:57:14.496Z,2.60
2023-01-25T13:59:52.247Z,2.60
2023-01-25T14:02:26.834Z,2.60
2023-01-25T14:05:01.996Z,2.50
2023-01-25T14:07:41.010Z,2.50
2023-01-25T14:10:23.427Z,2.50
2023-01-25T14:13:00.959Z,2.50
2023-01-25T14:15:35.403Z,2.50
2023-01-25T14:18:16.428Z,2.40
2023-01-25T14:20:53.554Z,2.40
2023-01-25T14:23:29.301Z,2.50
2023-01-25T14:26:03.100Z,2.50
2023-01-25T14:28:36.113Z,2.50
2023-01-25T14:31:25.293Z,2.50
2023-01-25T14:33:58.902Z,2.50
2023-01-25T14:36:34.470Z,2.50
2023-01-25T14:39:18.437Z,2.40
2023-01-25T14:42:01.116Z,2.40
2023-01-25T14:44:35.232Z,2.40
2023-01-25T14:47:32.959Z,2.40
2023-01-25T14:50:34.799Z,2.50
2023-01-25T14:53:16.470Z,2.50
2023-01-25T14:55:51.863Z,2.50
2023-01-25T14:58:29.097Z,2.50
2023-01-25T15:01:03.928Z,2.60
2023-01-25T15:03:45.262Z,2.60
2023-01-25T15:06:18.342Z,2.50
2023-01-25T15:08:51.414Z,2.60
2023-01-25T15:11:38.728Z,2.50
2023-01-25T15:14:19.177Z,2.50
2023-01-25T15:16:52.236Z,2.50
2023-01-25T15:19:29.702Z,2.50
2023-01-25T15:22:02.762Z,2.50
2023-01-25T15:24:35.798Z,2.60
2023-01-25T15:27:12.760Z,2.50
2023-01-25T15:29:45.773Z,2.40
2023-01-25T15:32:22.248Z,2.40
2023-01-25T15:34:56.622Z,2.40
2023-01-25T15:37:29.651Z,2.40
2023-01-25T15:40:02.676Z,2.40
2023-01-25T15:42:35.753Z,2.40
2023-01-25T15:45:10.769Z,2.40
2023-01-25T15:47:43.824Z,2.40
2023-01-25T15:50:21.600Z,2.40
2023-01-25T15:52:54.614Z,2.40
2023-01-25T15:55:28.122Z,2.40
2023-01-25T15:58:02.232Z,2.40
2023-01-25T16:00:35.255Z,2.40
2023-01-25T16:03:08.563Z,2.40
2023-01-25T16:05:43.149Z,2.40
2023-01-25T16:08:18.476Z,2.40
2023-01-25T16:10:51.634Z,2.40
2023-01-25T16:13:24.933Z,2.50
2023-01-25T16:15:58.457Z,2.50
2023-01-25T16:18:31.449Z,2.60
2023-01-25T16:21:06.195Z,2.50
2023-01-25T16:23:39.253Z,2.50
2023-01-25T16:26:19.869Z,2.60
2023-01-25T16:28:54.255Z,2.60
2023-01-25T16:31:32.914Z,2.60
2023-01-25T16:34:06.676Z,3.00
2023-01-25T16:36:41.306Z,2.90
2023-01-25T16:39:19.964Z,2.80
2023-01-25T16:41:53.628Z,2.70
2023-01-25T16:44:26.814Z,2.60
2023-01-25T16:46:59.865Z,2.60
2023-01-25T16:49:33.946Z,2.60
2023-01-25T16:52:09.435Z,2.60
2023-01-25T16:54:42.458Z,2.60
2023-01-25T16:57:20.388Z,2.40
2023-01-25T16:59:53.679Z,2.40
2023-01-25T17:02:26.768Z,2.30
2023-01-25T17:04:59.813Z,2.30
2023-01-25T17:07:34.747Z,2.30
2023-01-25T17:10:09.423Z,2.50
2023-01-25T17:12:43.379Z,2.60
2023-01-25T17:15:19.858Z,2.50
2023-01-25T17:17:52.942Z,2.50
2023-01-25T17:20:26.065Z,2.40
2023-01-25T17:23:00.439Z,2.30
2023-01-25T17:25:35.510Z,2.20
2023-01-25T17:28:08.516Z,2.30
2023-01-25T17:30:43.043Z,2.30
2023-01-25T17:33:16.475Z,2.30
2023-01-25T17:35:49.585Z,2.30
2023-01-25T17:38:25.699Z,2.30
2023-01-25T17:41:04.205Z,2.30
2023-01-25T17:43:37.631Z,2.30
2023-01-25T17:46:14.795Z,2.40
2023-01-25T17:48:48.830Z,2.40
2023-01-25T17:51:24.654Z,2.40
2023-01-25T17:53:59.612Z,2.20
2023-01-25T17:56:33.188Z,2.30
2023-01-25T17:59:08.796Z,2.50
2023-01-25T18:01:43.678Z,2.40
2023-01-25T18:04:17.784Z,2.20
2023-01-25T18:06:50.827Z,2.10
2023-01-25T18:09:25.769Z,2.00
2023-01-25T18:11:58.802Z,1.90
2023-01-25T18:14:32.000Z,1.90
2023-01-25T18:17:05.771Z,2.00
2023-01-25T18:19:38.816Z,2.20
2023-01-25T18:22:11.819Z,2.10
2023-01-25T18:24:46.519Z,2.00
2023-01-25T18:27:21.795Z,2.00
2023-01-25T18:29:57.156Z,2.00
2023-01-25T18:32:32.809Z,2.00
2023-01-25T18:35:06.535Z,2.00
2023-01-25T18:37:43.528Z,2.00
2023-01-25T18:40:19.940Z,2.00
2023-01-25T18:42:53.810Z,1.90
2023-01-25T18:45:26.828Z,1.90
2023-01-25T18:48:01.264Z,2.00
2023-01-25T18:50:34.295Z,2.20
2023-01-25T18:53:07.848Z,2.30
2023-01-25T18:55:42.214Z,2.10
2023-01-25T18:58:15.419Z,2.00
2023-01-25T19:00:48.578Z,2.00
2023-01-25T19:03:21.586Z,2.00
2023-01-25T19:05:54.623Z,2.00
2023-01-25T19:08:29.338Z,2.00
2023-01-25T19:11:06.765Z,2.00
2023-01-25T19:13:41.733Z,2.00
2023-01-25T19:16:17.540Z,2.10
2023-01-25T19:18:54.527Z,2.10
2023-01-25T19:21:28.905Z,2.20
2023-01-25T19:24:02.046Z,2.30
2023-01-25T19:26:36.684Z,2.30
2023-01-25T19:29:10.718Z,2.20
2023-01-25T19:31:43.896Z,1.90
2023-01-25T19:34:16.968Z,1.80
2023-01-25T19:36:50.654Z,1.70
2023-01-25T19:39:23.829Z,1.60
2023-01-25T19:41:58.333Z,1.60
2023-01-25T19:44:31.351Z,1.60
2023-01-25T19:47:04.869Z,1.60
2023-01-25T19:49:38.084Z,1.70
2023-01-25T19:52:11.138Z,1.70
2023-01-25T19:54:44.210Z,1.60
2023-01-25T19:57:18.643Z,1.70
2023-01-25T19:59:51.659Z,1.60
2023-01-25T20:02:24.816Z,1.60
2023-01-25T20:04:57.840Z,1.60
2023-01-25T20:07:32.424Z,1.50
2023-01-25T20:10:07.202Z,1.60
2023-01-25T20:12:41.574Z,1.60
2023-01-25T20:15:14.983Z,1.50
2023-01-25T20:17:48.163Z,1.60
2023-01-25T20:20:21.280Z,1.60
2023-01-25T20:22:54.605Z,1.60
2023-01-25T20:25:27.663Z,1.60
2023-01-25T20:28:02.068Z,1.60
2023-01-25T20:30:35.350Z,1.60
2023-01-25T20:33:08.378Z,1.60
2023-01-25T20:35:41.425Z,1.60
2023-01-25T20:38:14.747Z,1.60
2023-01-25T20:40:47.808Z,1.60
2023-01-25T20:43:23.124Z,1.60
2023-01-25T20:45:56.578Z,1.60
2023-01-25T20:48:31.200Z,1.60
2023-01-25T20:51:06.630Z,1.60
2023-01-25T20:53:40.390Z,1.60
2023-01-25T20:56:15.344Z,1.60
2023-01-25T20:58:51.236Z,1.60
2023-01-25T21:01:28.328Z,1.60
2023-01-25T21:04:01.410Z,1.60
2023-01-25T21:06:35.535Z,1.60
2023-01-25T21:09:08.612Z,1.60
2023-01-25T21:11:41.686Z,1.60
2023-01-25T21:14:17.108Z,1.60
2023-01-25T21:16:50.183Z,1.60
2023-01-25T21:19:23.195Z,1.50
2023-01-25T21:21:56.277Z,1.60
2023-01-25T21:24:29.493Z,1.60
2023-01-25T21:27:02.653Z,1.60
2023-01-25T21:29:37.002Z,1.50
2023-01-25T21:32:10.067Z,1.60
2023-01-25T21:34:43.103Z,1.60
2023-01-25T21:37:16.116Z,1.60
2023-01-25T21:39:49.167Z,1.60
2023-01-25T21:42:22.182Z,1.50
2023-01-25T21:45:14.203Z,1.50
2023-01-25T21:47:47.246Z,1.50
2023-01-25T21:50:37.753Z,1.50
2023-01-25T21:53:10.865Z,1.50
2023-01-25T21:55:43.915Z,1.50
2023-01-25T21:58:19.640Z,1.50
2023-01-25T22:00:54.022Z,1.50
2023-01-25T22:03:27.072Z,1.50
2023-01-25T22:06:00.093Z,1.50
2023-01-25T22:08:33.209Z,1.50
2023-01-25T22:11:08.591Z,1.50
2023-01-25T22:13:42.349Z,1.50
2023-01-25T22:16:16.876Z,1.50
2023-01-25T22:18:50.867Z,1.50
2023-01-25T22:21:27.297Z,1.50
2023-01-25T22:24:02.997Z,1.50
2023-01-25T22:26:48.739Z,1.50
2023-01-25T22:29:21.824Z,1.50
2023-01-25T22:31:56.633Z,1.50
2023-01-25T22:34:29.747Z,1.50
2023-01-25T22:37:02.725Z,1.50
2023-01-25T22:39:35.764Z,1.50
2023-01-25T22:42:08.769Z,1.40
2023-01-25T22:44:41.810Z,1.40
2023-01-25T22:47:16.159Z,1.40
2023-01-25T22:49:49.175Z,1.50
2023-01-25T22:52:23.298Z,1.50
2023-01-25T22:54:56.301Z,1.40
2023-01-25T22:57:29.314Z,1.40
2023-01-25T23:00:02.333Z,1.40
2023-01-25T23:02:38.086Z,1.50
2023-01-25T23:05:11.431Z,1.50
2023-01-25T23:07:44.485Z,1.50
2023-01-25T23:10:18.163Z,1.40
2023-01-25T23:12:53.486Z,1.40
2023-01-25T23:15:26.642Z,1.30
2023-01-25T23:18:19.770Z,1.20
2023-01-25T23:20:52.839Z,1.20
2023-01-25T23:23:25.919Z,1.20
2023-01-25T23:26:01.322Z,1.30
2023-01-25T23:28:34.577Z,1.20
2023-01-25T23:31:18.198Z,1.20
2023-01-25T23:33:54.759Z,1.20
2023-01-25T23:36:30.631Z,1.30
2023-01-25T23:39:04.008Z,1.30
2023-01-25T23:41:37.059Z,1.30
2023-01-25T23:44:10.112Z,1.20
2023-01-25T23:46:43.194Z,1.30
2023-01-25T23:49:17.601Z,1.30
2023-01-25T23:51:50.625Z,1.30
2023-01-25T23:54:23.647Z,1.20
2023-01-25T23:56:56.696Z,1.20
2023-01-25T23:59:29.759Z,1.20
